Time;durP1;ratioP1;P1;durP2;ratioP2;P2;SDS_P1;SDS_P2;PMS_P1;PMS_P2;Temp;Humidity;BMP_temperature;BMP_pressure;BME280_temperature;BME280_humidity;BME280_pressure;Samples;Min_cycle;Max_cycle;Signal;HPM_P1;HPM_P2
2023/02/20 00:01:53;;;;;;;20.70;10.80;;;;;;;0.25;100.00;99248.21;105844;1254;75868;-56
2023/02/20 00:04:24;;;;;;;19.20;10.10;;;;;;;0.21;100.00;99244.66;105884;1257;68534;-55
2023/02/20 00:06:55;;;;;;;22.00;10.50;;;;;;;0.18;100.00;99243.91;105829;1254;74294;-54
2023/02/20 00:09:24;;;;;;;20.70;11.20;;;;;;;0.16;100.00;99238.64;105756;1254;62708;-58
2023/02/20 00:11:54;;;;;;;20.20;10.20;;;;;;;0.14;100.00;99235.57;105901;1253;62230;-54
2023/02/20 00:14:26;;;;;;;;;;;;;;;0.13;100.00;99233.48;105697;1253;76728;-57
2023/02/20 00:16:54;;;;;;;18.70;9.80;;;;;;;0.12;100.00;99229.16;105816;1253;68761;-55
2023/02/20 00:19:24;;;;;;;19.30;9.30;;;;;;;0.08;100.00;99222.39;105827;1254;74127;-55
2023/02/20 00:21:53;;;;;;;23.10;10.80;;;;;;;0.04;100.00;99223.55;105825;1254;60774;-55
2023/02/20 00:24:23;;;;;;;20.00;9.70;;;;;;;0.01;100.00;99223.63;105667;1254;61541;-55
2023/02/20 00:26:52;;;;;;;18.20;9.20;;;;;;;-0.01;100.00;99224.52;105653;1256;75714;-55
2023/02/20 00:29:24;;;;;;;17.10;8.90;;;;;;;-0.04;100.00;99222.23;105850;1254;67437;-55
2023/02/20 00:31:56;;;;;;;22.40;11.90;;;;;;;-0.06;100.00;99221.25;105849;1253;73916;-57
2023/02/20 00:34:27;;;;;;;20.10;9.80;;;;;;;-0.09;100.00;99221.02;105995;1254;62656;-56
2023/02/20 00:36:59;;;;;;;19.60;10.70;;;;;;;-0.12;100.00;99220.19;105872;1253;61253;-55
2023/02/20 00:39:30;;;;;;;19.30;10.30;;;;;;;-0.13;100.00;99221.70;105961;1254;76211;-61
2023/02/20 00:41:59;;;;;;;20.40;9.20;;;;;;;-0.14;100.00;99221.27;105694;1260;67717;-57
2023/02/20 00:44:32;;;;;;;18.30;8.90;;;;;;;-0.15;100.00;99221.33;105871;1254;74110;-56
2023/02/20 00:47:00;;;;;;;18.30;9.00;;;;;;;-0.16;100.00;99218.06;106042;1253;61249;-59
2023/02/20 00:49:29;;;;;;;20.60;10.50;;;;;;;-0.19;100.00;99224.13;105816;1254;61122;-55
2023/02/20 00:52:10;;;;;;;18.80;10.20;;;;;;;-0.23;100.00;99228.73;106031;1253;76471;-57
2023/02/20 00:54:41;;;;;;;18.70;9.70;;;;;;;-0.26;100.00;99233.94;105777;1256;67936;-56
2023/02/20 00:57:09;;;;;;;16.80;9.20;;;;;;;-0.28;100.00;99235.86;105855;1254;74087;-55
2023/02/20 00:59:38;;;;;;;19.50;9.80;;;;;;;-0.29;100.00;99233.72;105989;1256;61427;-58
2023/02/20 01:02:20;;;;;;;15.00;8.70;;;;;;;-0.29;100.00;99237.30;105860;1254;60182;-58
2023/02/20 01:04:52;;;;;;;17.80;8.60;;;;;;;-0.30;100.00;99236.66;105892;1257;76352;-55
2023/02/20 01:07:21;;;;;;;18.10;9.10;;;;;;;-0.31;100.00;99239.48;105928;1254;68565;-55
2023/02/20 01:09:49;;;;;;;18.90;7.70;;;;;;;-0.32;100.00;99237.23;105535;1254;73552;-55
2023/02/20 01:12:18;;;;;;;17.40;8.10;;;;;;;-0.30;100.00;99240.80;105633;1254;61141;-55
2023/02/20 01:14:47;;;;;;;15.30;7.40;;;;;;;-0.27;100.00;99246.48;105540;1257;61738;-55
2023/02/20 01:17:15;;;;;;;14.80;8.10;;;;;;;-0.24;100.00;99247.27;105758;1256;75944;-57
2023/02/20 01:19:44;;;;;;;15.80;7.60;;;;;;;-0.20;100.00;99242.66;105926;1254;68435;-55
2023/02/20 01:22:13;;;;;;;15.60;8.80;;;;;;;-0.19;100.00;99245.09;105413;1254;72998;-55
2023/02/20 01:24:43;;;;;;;17.80;8.00;;;;;;;-0.17;100.00;99243.96;105669;1257;61247;-54
2023/02/20 01:27:12;;;;;;;16.50;7.90;;;;;;;-0.17;100.00;99246.95;105906;1254;61891;-56
2023/02/20 01:29:40;;;;;;;13.90;7.30;;;;;;;-0.16;100.00;99245.19;105591;1253;75722;-55
2023/02/20 01:32:12;;;;;;;17.60;8.50;;;;;;;-0.16;100.00;99244.01;105814;1254;68521;-56
2023/02/20 01:34:41;;;;;;;16.10;8.80;;;;;;;-0.18;100.00;99241.11;105852;1256;73276;-55
2023/02/20 01:37:12;;;;;;;14.50;8.50;;;;;;;-0.21;100.00;99236.41;105840;1256;61241;-55
2023/02/20 01:39:41;;;;;;;17.70;8.30;;;;;;;-0.25;100.00;99236.60;105542;1254;61348;-54
2023/02/20 01:42:13;;;;;;;16.10;8.20;;;;;;;-0.30;100.00;99233.22;105769;1254;75632;-54
2023/02/20 01:44:42;;;;;;;20.10;8.70;;;;;;;-0.36;100.00;99233.46;105638;1253;68600;-56
2023/02/20 01:47:19;;;;;;;18.90;9.30;;;;;;;-0.41;100.00;99233.41;105870;1253;74677;-55
2023/02/20 01:50:02;;;;;;;13.90;8.00;;;;;;;-0.46;100.00;99232.38;105649;1257;61091;-57
2023/02/20 01:52:32;;;;;;;18.70;8.10;;;;;;;-0.52;100.00;99232.48;105965;1256;62019;-57
2023/02/20 01:55:02;;;;;;;15.50;8.40;;;;;;;-0.56;100.00;99233.73;105555;1256;76250;-56
2023/02/20 01:57:32;;;;;;;17.90;8.90;;;;;;;-0.62;100.00;99233.39;105675;1257;67488;-55
2023/02/20 02:00:06;;;;;;;21.60;10.50;;;;;;;-0.68;100.00;99235.55;105777;1256;74318;-55
2023/02/20 02:02:44;;;;;;;20.60;10.10;;;;;;;-0.75;100.00;99237.30;105506;1254;61352;-55
2023/02/20 02:05:12;;;;;;;;;;;;;;;-0.81;100.00;99241.25;105774;1254;61847;-55
2023/02/20 02:07:44;;;;;;;19.50;9.80;;;;;;;-0.87;100.00;99246.41;105597;1254;76405;-55
2023/02/20 02:10:35;;;;;;;17.40;10.00;;;;;;;-0.93;100.00;99247.48;105932;1253;68639;-55
2023/02/20 02:13:03;;;;;;;19.40;11.00;;;;;;;-1.01;100.00;99251.88;105774;1254;74143;-56
2023/02/20 02:15:33;;;;;;;23.60;11.10;;;;;;;-1.09;100.00;99256.85;105642;1254;61470;-55
2023/02/20 02:18:28;;;;;;;20.40;11.10;;;;;;;-1.16;100.00;99258.63;105594;1256;60850;-55
2023/02/20 02:21:16;;;;;;;22.90;10.20;;;;;;;-1.21;100.00;99263.17;105703;1254;75076;-56
2023/02/20 02:24:14;;;;;;;18.20;9.30;;;;;;;-1.26;100.00;99262.23;105719;1257;68677;-56
2023/02/20 02:26:54;;;;;;;20.40;10.80;;;;;;;-1.32;100.00;99258.63;105836;1253;72840;-58
2023/02/20 02:30:00;;;;;;;18.80;10.60;;;;;;;-1.37;100.00;99256.21;105905;1254;61304;-55
2023/02/20 02:32:49;;;;;;;20.60;11.30;;;;;;;-1.44;100.00;99257.83;105600;1254;61221;-55
2023/02/20 02:35:20;;;;;;;18.70;11.10;;;;;;;-1.51;100.00;99259.42;105855;1255;76058;-57
2023/02/20 02:38:25;;;;;;;18.20;10.30;;;;;;;-1.56;100.00;99256.80;106067;1256;68622;-56
2023/02/20 02:40:54;;;;;;;17.80;9.10;;;;;;;-1.59;100.00;99261.66;105645;1254;73206;-55
2023/02/20 02:43:26;;;;;;;20.90;10.70;;;;;;;-1.61;100.00;99263.84;105798;1254;61208;-56
2023/02/20 02:46:01;;;;;;;19.20;9.60;;;;;;;-1.62;100.00;99262.45;105810;1256;61240;-54
2023/02/20 02:48:39;;;;;;;16.30;9.40;;;;;;;-1.62;100.00;99256.79;106129;1254;76443;-57
2023/02/20 02:51:12;;;;;;;16.80;9.50;;;;;;;-1.62;100.00;99259.36;105596;1254;68887;-55
2023/02/20 02:53:40;;;;;;;17.40;9.00;;;;;;;-1.63;100.00;99261.50;105747;1257;72543;-55
2023/02/20 02:56:21;;;;;;;16.50;9.20;;;;;;;-1.65;100.00;99266.38;105641;1254;61240;-55
2023/02/20 02:58:56;;;;;;;18.10;10.20;;;;;;;-1.66;100.00;99264.98;105642;1256;61601;-55
2023/02/20 03:01:25;;;;;;;21.00;10.40;;;;;;;-1.63;100.00;99267.45;105710;1254;75970;-55
2023/02/20 03:03:53;;;;;;;29.00;12.50;;;;;;;-1.62;100.00;99263.95;105719;1254;68666;-55
2023/02/20 03:06:29;;;;;;;27.30;12.00;;;;;;;-1.60;100.00;99263.08;105698;1254;74118;-55
2023/02/20 03:09:01;;;;;;;19.90;10.40;;;;;;;-1.59;100.00;99260.93;105625;1254;61077;-55
2023/02/20 03:11:32;;;;;;;22.40;10.30;;;;;;;-1.58;100.00;99260.52;105683;1252;61279;-54
2023/02/20 03:17:12;;;;;;;18.40;9.10;;;;;;;-1.67;100.00;99267.44;105679;1258;67503;-56
2023/02/20 03:19:45;;;;;;;21.10;9.60;;;;;;;-1.73;100.00;99271.62;105598;1254;72221;-56
2023/02/20 03:22:18;;;;;;;21.30;10.40;;;;;;;-1.76;100.00;99271.23;105782;1254;61263;-54
2023/02/20 03:24:54;;;;;;;37.30;19.30;;;;;;;-1.78;100.00;99272.08;105699;1256;61777;-54
2023/02/20 03:28:22;;;;;;;49.50;23.30;;;;;;;-1.77;100.00;99275.75;105560;1253;76489;-56
2023/02/20 03:30:55;;;;;;;49.20;22.20;;;;;;;-1.74;100.00;99275.83;105295;1261;68102;-57
2023/02/20 03:45:05;;;;;;;34.70;16.60;;;;;;;-1.86;100.00;99272.23;105608;1257;67631;-55
2023/02/20 03:47:36;;;;;;;17.30;9.90;;;;;;;-1.89;100.00;99270.64;105525;1254;73137;-55
2023/02/20 03:50:05;;;;;;;15.00;7.30;;;;;;;-1.94;100.00;99268.14;105575;1257;61299;-54
2023/02/20 03:52:34;;;;;;;13.50;7.30;;;;;;;-1.98;100.00;99272.34;105627;1253;61833;-55
2023/02/20 03:55:03;;;;;;;15.30;6.80;;;;;;;-2.01;100.00;99279.13;105481;1259;75110;-55
2023/02/20 03:57:34;;;;;;;12.10;6.20;;;;;;;-2.04;100.00;99279.68;105699;1257;68894;-57
2023/02/20 04:00:10;;;;;;;12.50;6.50;;;;;;;-2.04;100.00;99277.66;105531;1259;73221;-55
2023/02/20 04:02:53;;;;;;;12.80;5.70;;;;;;;-2.02;100.00;99279.39;105294;1254;61256;-55
2023/02/20 04:05:25;;;;;;;12.60;4.60;;;;;;;-2.02;100.00;99278.34;105582;1254;62237;-55
2023/02/20 04:07:54;;;;;;;10.30;5.20;;;;;;;-2.03;100.00;99278.55;105529;1259;76211;-55
2023/02/20 04:10:33;;;;;;;9.20;5.10;;;;;;;-2.05;100.00;99280.45;105596;1254;68294;-60
2023/02/20 04:13:03;;;;;;;10.90;5.40;;;;;;;-2.06;100.00;99280.06;105696;1254;74255;-55
2023/02/20 04:15:32;;;;;;;9.30;5.00;;;;;;;-2.07;100.00;99280.66;105596;1254;61248;-55
2023/02/20 04:18:08;;;;;;;11.50;5.80;;;;;;;-2.07;100.00;99280.09;105854;1254;61940;-56
2023/02/20 04:20:38;;;;;;;8.70;4.10;;;;;;;-2.03;100.00;99281.00;105626;1254;75204;-56
2023/02/20 04:23:17;;;;;;;8.60;4.30;;;;;;;-2.00;100.00;99283.81;105422;1254;68608;-56
2023/02/20 04:25:57;;;;;;;9.70;5.40;;;;;;;-1.97;100.00;99279.95;105822;1257;74191;-57
2023/02/20 04:28:26;;;;;;;8.90;4.70;;;;;;;-1.93;100.00;99277.96;105746;1253;61535;-55
2023/02/20 04:31:01;;;;;;;8.60;4.40;;;;;;;-1.93;100.00;99279.30;105656;1259;60631;-54
2023/02/20 04:33:30;;;;;;;9.20;4.50;;;;;;;-1.93;100.00;99284.05;105875;1257;75230;-57
2023/02/20 04:36:03;;;;;;;12.80;4.80;;;;;;;-1.91;100.00;99285.27;105605;1254;68774;-55
2023/02/20 04:38:32;;;;;;;9.00;3.90;;;;;;;-1.90;100.00;99286.70;105723;1254;73528;-58
2023/02/20 04:41:01;;;;;;;8.00;4.20;;;;;;;-1.90;100.00;99292.98;105694;1255;61275;-55
2023/02/20 04:43:30;;;;;;;9.80;4.40;;;;;;;-1.90;100.00;99295.41;105923;1257;61936;-57
2023/02/20 04:46:00;;;;;;;9.70;4.70;;;;;;;-1.90;100.00;99289.92;105558;1254;76928;-55
2023/02/20 04:48:29;;;;;;;10.50;5.00;;;;;;;-1.91;100.00;99292.46;105872;1256;67646;-55
2023/02/20 04:50:58;;;;;;;10.30;5.30;;;;;;;-1.92;100.00;99293.91;105594;1257;74119;-55
2023/02/20 04:53:30;;;;;;;9.00;4.30;;;;;;;-1.92;100.00;99302.05;105474;1253;63226;-56
2023/02/20 04:55:59;;;;;;;6.90;3.30;;;;;;;-1.92;100.00;99307.46;105755;1253;61905;-55
2023/02/20 04:58:28;;;;;;;11.30;4.70;;;;;;;-1.90;100.00;99312.55;105841;1256;74949;-57
2023/02/20 05:01:03;;;;;;;8.60;4.40;;;;;;;-1.87;100.00;99314.19;105426;1257;65868;-56
2023/02/20 05:03:32;;;;;;;10.50;4.60;;;;;;;-1.85;100.00;99317.98;105715;1256;74188;-55
2023/02/20 05:06:00;;;;;;;8.40;4.20;;;;;;;-1.85;100.00;99317.96;105745;1254;62601;-56
2023/02/20 05:08:31;;;;;;;8.00;4.00;;;;;;;-1.83;100.00;99318.81;105562;1254;62048;-56
2023/02/20 05:11:00;;;;;;;9.10;4.00;;;;;;;-1.80;100.00;99319.11;105464;1254;76440;-55
2023/02/20 05:13:30;;;;;;;7.50;3.60;;;;;;;-1.77;100.00;99320.71;105588;1256;202132;-55
2023/02/20 05:15:58;;;;;;;8.00;4.00;;;;;;;-1.73;100.00;99325.01;105675;1254;72521;-55
2023/02/20 05:18:28;;;;;;;10.40;4.40;;;;;;;-1.70;100.00;99326.27;105943;1257;61725;-58
2023/02/20 05:23:46;;;;;;;8.60;3.70;;;;;;;-1.57;100.00;99334.35;105927;1254;76405;-56
2023/02/20 05:26:19;;;;;;;6.80;3.60;;;;;;;-1.52;100.00;99330.20;106114;1254;67495;-58
2023/02/20 05:28:48;;;;;;;7.70;3.60;;;;;;;-1.48;100.00;99331.91;105783;1256;73052;-56
2023/02/20 05:31:17;;;;;;;7.90;4.40;;;;;;;-1.42;100.00;99329.86;105970;1256;61787;-55
2023/02/20 05:33:47;;;;;;;9.70;5.20;;;;;;;-1.37;100.00;99325.69;105809;1254;61564;-54
2023/02/20 05:36:16;;;;;;;7.20;3.80;;;;;;;-1.30;100.00;99330.09;106010;1256;75904;-58
2023/02/20 05:38:47;;;;;;;8.50;3.60;;;;;;;-1.24;100.00;99331.77;105957;1256;67740;-56
2023/02/20 05:41:17;;;;;;;6.40;3.40;;;;;;;-1.16;100.00;99332.67;105717;1254;74314;-55
2023/02/20 05:43:47;;;;;;;7.70;3.90;;;;;;;-1.11;100.00;99336.84;105676;1253;61231;-56
2023/02/20 05:46:15;;;;;;;6.30;3.00;;;;;;;-1.05;100.00;99338.52;105695;1254;61913;-58
2023/02/20 05:48:48;;;;;;;8.60;3.20;;;;;;;-0.98;100.00;99339.92;105735;1256;74984;-55
2023/02/20 05:51:25;;;;;;;9.40;3.70;;;;;;;-0.90;100.00;99338.78;105734;1256;67603;-55
2023/02/20 05:53:53;;;;;;;6.50;2.80;;;;;;;-0.84;100.00;99334.14;105949;1254;73157;-58
2023/02/20 05:56:22;;;;;;;7.30;4.20;;;;;;;-0.77;100.00;99329.56;105845;1255;61483;-56
2023/02/20 05:58:51;;;;;;;5.00;2.70;;;;;;;-0.69;100.00;99329.61;105914;1256;61231;-56
2023/02/20 06:01:22;;;;;;;5.50;3.00;;;;;;;-0.64;100.00;99330.49;105796;1253;74939;-56
2023/02/20 06:03:51;;;;;;;5.80;3.00;;;;;;;-0.58;100.00;99329.98;105882;1256;68760;-56
2023/02/20 06:06:20;;;;;;;7.90;3.50;;;;;;;-0.53;100.00;99327.98;105850;1256;73255;-57
2023/02/20 06:08:48;;;;;;;9.40;3.80;;;;;;;-0.45;100.00;99325.15;105874;1257;61229;-54
2023/02/20 06:11:17;;;;;;;7.60;3.20;;;;;;;-0.38;100.00;99326.70;106042;1254;60632;-58
2023/02/20 06:13:45;;;;;;;6.20;3.10;;;;;;;-0.32;100.00;99326.84;106030;1253;75138;-57
2023/02/20 06:16:23;;;;;;;7.20;3.50;;;;;;;-0.23;100.00;99332.50;105835;1256;65820;-56
2023/02/20 06:18:53;;;;;;;7.70;3.10;;;;;;;-0.12;100.00;99334.48;105782;1253;74435;-56
2023/02/20 06:21:22;;;;;;;4.70;2.70;;;;;;;0.01;100.00;99333.78;106182;1254;61289;-57
2023/02/20 06:23:53;;;;;;;6.10;2.70;;;;;;;0.16;100.00;99324.55;105524;1254;61222;-57
2023/02/20 06:26:22;;;;;;;5.20;2.70;;;;;;;0.34;100.00;99326.22;105829;1256;76300;-57
2023/02/20 06:28:53;;;;;;;5.00;2.30;;;;;;;0.50;100.00;99324.90;105687;1254;68548;-57
2023/02/20 06:31:23;;;;;;;5.40;2.40;;;;;;;0.65;100.00;99321.95;106070;1255;74092;-56
2023/02/20 06:33:52;;;;;;;5.20;3.00;;;;;;;0.85;100.00;99319.94;105741;1254;61147;-56
2023/02/20 06:36:22;;;;;;;7.70;2.60;;;;;;;1.10;100.00;99322.02;105779;1255;61205;-54
2023/02/20 06:38:51;;;;;;;6.00;2.60;;;;;;;1.37;100.00;99317.11;105759;1253;76202;-56
2023/02/20 06:41:19;;;;;;;4.50;2.20;;;;;;;1.60;100.00;99308.14;105767;1256;66987;-56
2023/02/20 06:43:48;;;;;;;4.50;1.80;;;;;;;1.89;100.00;99305.38;105855;1256;73182;-57
2023/02/20 06:46:16;;;;;;;4.90;2.10;;;;;;;2.20;100.00;99302.84;105817;1254;61346;-56
2023/02/20 06:48:46;;;;;;;3.50;1.40;;;;;;;2.57;100.00;99298.61;105743;1254;61857;-56
2023/02/20 06:51:23;;;;;;;5.50;2.00;;;;;;;2.93;100.00;99302.45;105905;1256;76124;-57
2023/02/20 06:53:51;;;;;;;4.10;1.80;;;;;;;3.27;100.00;99299.10;105816;1256;67094;-56
2023/02/20 06:56:26;;;;;;;4.90;1.50;;;;;;;3.59;100.00;99300.56;105831;1256;74218;-56
2023/02/20 06:58:57;;;;;;;5.20;1.80;;;;;;;3.87;100.00;99296.24;105774;1254;61237;-57
2023/02/20 07:01:28;;;;;;;4.70;1.50;;;;;;;4.11;100.00;99287.97;105945;1256;61256;-57
2023/02/20 07:03:57;;;;;;;3.20;1.30;;;;;;;4.31;100.00;99288.11;106298;1253;76207;-55
2023/02/20 07:06:28;;;;;;;3.40;1.40;;;;;;;4.43;100.00;99279.55;105732;1257;68558;-55
2023/02/20 07:08:56;;;;;;;3.30;1.00;;;;;;;4.51;100.00;99275.59;106089;1256;73142;-58
2023/02/20 07:11:25;;;;;;;2.50;1.10;;;;;;;4.61;100.00;99279.84;105832;1265;61225;-57
2023/02/20 07:13:56;;;;;;;3.60;1.30;;;;;;;4.74;100.00;99274.06;105925;1256;61487;-56
2023/02/20 07:16:25;;;;;;;1.80;0.80;;;;;;;4.88;100.00;99275.55;105818;1254;76158;-56
2023/02/20 07:18:58;;;;;;;3.20;1.20;;;;;;;5.09;100.00;99270.17;105778;1254;68614;-56
2023/02/20 07:21:26;;;;;;;3.70;1.20;;;;;;;5.19;100.00;99274.64;105898;1254;72885;-56
2023/02/20 07:23:55;;;;;;;4.00;1.00;;;;;;;5.28;100.00;99272.33;105871;1254;61183;-55
2023/02/20 07:26:26;;;;;;;3.50;1.00;;;;;;;5.38;100.00;99268.25;105892;1257;61134;-57
2023/02/20 07:28:57;;;;;;;3.10;1.00;;;;;;;5.65;100.00;99273.27;105924;1254;76348;-56
2023/02/20 07:31:26;;;;;;;2.90;0.90;;;;;;;6.08;100.00;99273.32;105970;1257;67900;-57
2023/02/20 07:33:55;;;;;;;2.10;0.90;;;;;;;6.57;100.00;99274.08;105974;1256;73690;-56
2023/02/20 07:36:23;;;;;;;3.20;1.00;;;;;;;6.88;100.00;99271.45;105976;1254;61752;-56
2023/02/20 07:38:56;;;;;;;4.60;1.10;;;;;;;7.23;100.00;99273.98;105833;1254;61991;-60
2023/02/20 07:41:31;;;;;;;2.60;1.00;;;;;;;7.69;100.00;99271.83;106010;1254;74410;-56
2023/02/20 07:43:59;;;;;;;2.30;0.80;;;;;;;8.19;100.00;99269.20;105724;1256;67572;-57
2023/02/20 07:46:32;;;;;;;3.00;1.10;;;;;;;8.63;100.00;99269.50;105946;1254;74211;-56
2023/02/20 07:49:02;;;;;;;2.80;1.20;;;;;;;8.93;100.00;99268.19;105967;1256;61700;-59
2023/02/20 07:51:31;;;;;;;2.90;0.90;;;;;;;9.26;100.00;99262.56;105730;1253;61954;-56
2023/02/20 07:54:00;;;;;;;3.10;0.80;;;;;;;9.58;100.00;99259.90;105806;1254;75141;-56
2023/02/20 07:56:29;;;;;;;1.60;0.60;;;;;;;9.88;100.00;99253.27;106111;1256;67512;-57
2023/02/20 07:58:59;;;;;;;2.50;0.90;;;;;;;9.94;100.00;99249.09;105697;1255;74745;-56
2023/02/20 08:01:28;;;;;;;2.70;0.90;;;;;;;10.09;99.34;99247.38;105724;1254;62002;-57
2023/02/20 08:03:57;;;;;;;2.40;0.90;;;;;;;10.27;93.22;99242.14;105914;1253;61955;-57
2023/02/20 08:06:27;;;;;;;2.90;1.10;;;;;;;10.42;87.49;99238.61;105955;1254;76756;-59
2023/02/20 08:08:56;;;;;;;2.60;1.00;;;;;;;10.56;83.80;99233.96;105918;1256;67395;-55
2023/02/20 08:11:25;;;;;;;3.00;0.90;;;;;;;10.65;80.32;99237.41;105846;1254;73146;-58
2023/02/20 08:13:54;;;;;;;3.00;0.80;;;;;;;10.77;77.73;99234.67;105741;1254;62133;-55
2023/02/20 08:16:23;;;;;;;2.20;0.70;;;;;;;10.92;72.29;99234.70;105803;1256;61200;-57
2023/02/20 08:18:52;;;;;;;2.10;0.70;;;;;;;11.08;70.32;99231.92;105728;1256;76294;-56
2023/02/20 08:21:22;;;;;;;2.70;0.70;;;;;;;11.27;66.43;99227.36;105892;1254;67433;-57
2023/02/20 08:23:51;;;;;;;1.80;0.70;;;;;;;11.34;64.91;99223.21;105614;1255;74235;-56
2023/02/20 08:26:20;;;;;;;3.20;1.10;;;;;;;11.34;59.92;99217.14;105752;1254;62031;-57
2023/02/20 08:28:49;;;;;;;3.00;1.00;;;;;;;11.16;58.26;99220.41;105919;1254;61724;-56
2023/02/20 08:31:17;;;;;;;5.20;1.40;;;;;;;11.05;57.97;99215.41;105817;1254;76050;-59
2023/02/20 08:33:59;;;;;;;3.90;1.00;;;;;;;10.97;55.73;99212.37;105675;1254;68730;-58
2023/02/20 08:36:28;;;;;;;2.50;0.70;;;;;;;10.87;55.34;99215.20;105842;1254;74140;-55
2023/02/20 08:38:56;;;;;;;2.60;0.80;;;;;;;10.92;57.36;99212.48;105874;1256;61237;-55
2023/02/20 08:41:25;;;;;;;3.10;1.00;;;;;;;11.05;55.36;99212.07;105876;1254;61224;-58
2023/02/20 08:43:54;;;;;;;1.70;0.50;;;;;;;11.16;56.11;99212.80;105814;1254;76311;-58
2023/02/20 08:46:23;;;;;;;2.90;0.90;;;;;;;11.29;55.19;99208.60;105822;1256;67803;-56
2023/02/20 08:48:53;;;;;;;3.00;1.20;;;;;;;11.40;57.93;99210.02;105803;1256;73352;-56
2023/02/20 08:51:22;;;;;;;2.10;0.70;;;;;;;11.67;55.21;99206.10;106214;1254;61320;-57
2023/02/20 08:53:55;;;;;;;3.10;0.80;;;;;;;11.85;51.58;99208.91;105466;1257;63412;-57
2023/02/20 08:56:23;;;;;;;2.10;0.80;;;;;;;11.95;48.31;99207.02;105839;1254;76044;-55
2023/02/20 08:58:52;;;;;;;2.20;0.70;;;;;;;11.84;47.16;99211.48;105837;1256;68547;-55
2023/02/20 09:01:21;;;;;;;2.20;0.60;;;;;;;11.64;47.18;99208.02;105894;1254;74504;-57
2023/02/20 09:03:50;;;;;;;2.70;0.60;;;;;;;11.50;48.85;99202.91;105834;1256;61043;-58
2023/02/20 09:06:20;;;;;;;2.10;0.70;;;;;;;11.49;51.02;99200.64;105759;1256;61214;-57
2023/02/20 09:08:49;;;;;;;2.40;0.70;;;;;;;11.58;51.29;99196.08;105666;1256;76577;-58
2023/02/20 09:11:21;;;;;;;2.50;0.80;;;;;;;11.63;49.91;99194.46;106121;1254;68638;-60
2023/02/20 09:13:50;;;;;;;2.10;0.60;;;;;;;11.55;48.87;99198.30;105883;1257;74682;-58
2023/02/20 09:16:20;;;;;;;1.60;0.70;;;;;;;11.52;49.17;99196.73;105889;1254;61874;-57
2023/02/20 09:18:49;;;;;;;3.40;0.70;;;;;;;11.50;47.92;99193.60;105785;1253;61685;-56
2023/02/20 09:21:18;;;;;;;2.20;0.50;;;;;;;11.36;46.65;99189.80;106029;1258;75991;-61
2023/02/20 09:23:47;;;;;;;2.80;1.10;;;;;;;11.17;46.85;99188.23;105607;1257;69519;-56
2023/02/20 09:26:16;;;;;;;2.20;0.70;;;;;;;10.96;49.41;99185.80;105936;1257;73187;-56
2023/02/20 09:28:46;;;;;;;2.00;0.70;;;;;;;10.96;49.70;99188.43;105822;1257;61311;-56
2023/02/20 09:31:15;;;;;;;2.70;0.80;;;;;;;10.98;49.97;99188.45;106213;1254;62036;-56
2023/02/20 09:33:45;;;;;;;1.20;0.50;;;;;;;11.03;51.97;99190.34;105885;1256;75777;-58
2023/02/20 09:36:19;;;;;;;1.80;0.60;;;;;;;11.17;51.54;99185.86;105719;1257;68564;-58
2023/02/20 09:38:47;;;;;;;2.00;0.70;;;;;;;11.29;49.91;99184.88;105889;1256;74010;-58
2023/02/20 09:41:25;;;;;;;1.30;0.60;;;;;;;11.18;47.90;99185.86;106029;1257;61365;-60
2023/02/20 09:44:25;;;;;;;2.60;0.60;;;;;;;10.76;48.70;99187.02;105790;1254;61263;-56
2023/02/20 09:46:55;;;;;;;2.20;0.60;;;;;;;10.45;50.68;99184.33;105682;1256;76509;-59
2023/02/20 09:49:25;;;;;;;1.90;0.70;;;;;;;10.31;53.30;99187.08;105687;1258;67638;-57
2023/02/20 09:52:02;;;;;;;2.60;0.60;;;;;;;10.31;55.28;99190.38;105751;1257;74147;-58
2023/02/20 09:54:40;;;;;;;2.30;0.80;;;;;;;10.38;56.04;99190.81;105997;1258;61926;-57
2023/02/20 09:57:18;;;;;;;3.60;1.10;;;;;;;10.45;53.89;99191.62;105776;1256;61944;-58
2023/02/20 09:59:52;;;;;;;2.40;0.70;;;;;;;10.23;50.71;99191.61;105571;1259;76125;-58
2023/02/20 10:02:22;;;;;;;2.60;1.00;;;;;;;9.66;52.80;99193.76;105913;1254;67816;-60
2023/02/20 10:04:52;;;;;;;2.60;0.80;;;;;;;9.26;58.95;99199.13;105897;1255;73249;-58
2023/02/20 10:07:32;;;;;;;2.40;0.80;;;;;;;9.18;63.00;99197.72;105482;1256;61978;-56
2023/02/20 10:10:09;;;;;;;6.90;1.20;;;;;;;9.18;64.06;99197.36;105604;1254;61241;-56
2023/02/20 10:12:48;;;;;;;2.80;0.80;;;;;;;9.18;65.77;99199.67;105555;1259;76109;-56
2023/02/20 10:15:32;;;;;;;1.60;0.60;;;;;;;9.31;67.62;99208.31;106041;1254;68769;-58
2023/02/20 10:18:24;;;;;;;2.30;0.70;;;;;;;9.45;62.82;99206.35;105775;1254;74979;-57
2023/02/20 10:21:00;;;;;;;2.00;0.80;;;;;;;9.30;59.17;99202.56;105928;1254;61332;-59
2023/02/20 10:23:45;;;;;;;2.10;0.80;;;;;;;8.86;59.96;99196.21;105894;1256;61516;-58
2023/02/20 10:26:34;;;;;;;2.50;0.80;;;;;;;8.37;67.68;99208.64;105589;1254;74870;-57
2023/02/20 10:29:24;;;;;;;1.90;0.70;;;;;;;8.11;71.37;99209.35;105711;1258;68423;-58
2023/02/20 10:31:59;;;;;;;3.50;0.80;;;;;;;7.90;73.73;99207.34;105836;1255;74158;-57
2023/02/20 10:34:44;;;;;;;2.70;0.80;;;;;;;7.77;76.53;99209.42;106007;1256;61342;-58
2023/02/20 10:37:20;;;;;;;2.80;0.90;;;;;;;7.69;79.20;99217.32;105718;1256;62105;-58
2023/02/20 10:39:59;;;;;;;3.60;0.90;;;;;;;7.60;80.20;99221.55;105859;1256;75163;-58
2023/02/20 10:42:37;;;;;;;2.00;0.90;;;;;;;7.34;83.40;99219.01;105556;1255;67470;-57
2023/02/20 10:45:34;;;;;;;2.30;0.70;;;;;;;7.04;87.17;99228.35;105689;1254;74205;-56
2023/02/20 10:48:08;;;;;;;3.90;1.20;;;;;;;6.56;90.78;99219.27;105636;1258;61464;-56
2023/02/20 10:50:40;;;;;;;3.80;1.20;;;;;;;5.97;98.13;99228.19;105743;1254;61887;-56
2023/02/20 10:53:27;;;;;;;2.20;0.80;;;;;;;5.48;100.00;99233.22;105931;1255;76214;-56
2023/02/20 10:56:06;;;;;;;3.50;1.10;;;;;;;5.10;100.00;99239.55;105605;1260;68655;-56
2023/02/20 10:58:44;;;;;;;3.20;0.90;;;;;;;4.85;100.00;99238.95;105750;1254;74222;-58
2023/02/20 11:01:15;;;;;;;2.70;1.00;;;;;;;4.66;100.00;99242.77;105864;1256;61207;-56
2023/02/20 11:04:05;;;;;;;2.80;1.00;;;;;;;4.52;100.00;99242.93;105739;1254;61861;-56
2023/02/20 11:06:44;;;;;;;2.30;0.80;;;;;;;4.42;100.00;99240.46;105779;1256;75927;-56
2023/02/20 11:09:13;;;;;;;2.30;0.70;;;;;;;4.42;100.00;99247.69;105662;1260;67900;-55
2023/02/20 11:11:43;;;;;;;4.00;1.00;;;;;;;4.43;100.00;99246.45;105745;1254;73695;-55
2023/02/20 11:14:14;;;;;;;3.80;1.10;;;;;;;4.45;100.00;99247.88;105703;1257;61153;-55
2023/02/20 11:16:47;;;;;;;2.90;0.80;;;;;;;4.45;100.00;99249.61;105727;1256;61158;-57
2023/02/20 11:19:20;;;;;;;3.10;1.20;;;;;;;4.38;100.00;99242.39;105560;1254;76295;-54
2023/02/20 11:21:49;;;;;;;2.70;0.80;;;;;;;4.26;100.00;99239.60;105700;1256;67981;-56
2023/02/20 11:24:34;;;;;;;2.20;0.70;;;;;;;4.21;100.00;99239.20;105835;1257;73616;-54
2023/02/20 11:27:08;;;;;;;4.00;1.20;;;;;;;4.21;100.00;99235.70;105526;1257;61323;-55
2023/02/20 11:29:45;;;;;;;5.70;1.50;;;;;;;4.22;100.00;99240.11;105572;1254;61879;-56
2023/02/20 11:32:28;;;;;;;4.50;1.40;;;;;;;4.29;100.00;99243.20;105917;1260;76176;-55
2023/02/20 11:35:16;;;;;;;3.40;1.50;;;;;;;4.44;100.00;99243.42;105769;1257;68612;-55
2023/02/20 11:37:45;;;;;;;3.10;1.20;;;;;;;4.63;100.00;99237.46;105722;1256;73660;-55
2023/02/20 11:40:27;;;;;;;2.70;1.00;;;;;;;4.90;100.00;99228.91;105386;1259;61357;-55
2023/02/20 11:43:30;;;;;;;2.90;1.00;;;;;;;5.24;100.00;99233.56;105537;1256;62054;-57
2023/02/20 11:46:15;;;;;;;3.60;1.50;;;;;;;5.65;100.00;99235.20;105621;1255;76128;-57
2023/02/20 11:48:56;;;;;;;3.60;0.90;;;;;;;5.77;99.24;99239.84;106079;1257;67614;-55
2023/02/20 11:51:41;;;;;;;3.70;1.40;;;;;;;5.52;96.02;99244.30;105975;1256;73635;-56
2023/02/20 11:54:21;;;;;;;2.20;0.80;;;;;;;5.18;96.82;99246.31;105758;1257;61221;-55
2023/02/20 11:56:58;;;;;;;4.40;1.40;;;;;;;4.95;99.95;99247.99;105695;1256;62341;-54
2023/02/20 11:59:29;;;;;;;4.30;1.40;;;;;;;4.96;100.00;99248.21;105969;1256;76271;-56
2023/02/20 12:02:25;;;;;;;3.20;1.00;;;;;;;4.91;100.00;99245.66;105744;1253;67721;-55
2023/02/20 12:05:12;;;;;;;3.50;1.40;;;;;;;4.80;100.00;99243.51;105853;1254;73226;-56